sensor_id;sensor_type;location;lat;lon;timestamp;pressure;altitude;pressure_sealevel;temperature;humidity
4836;BME280;2432;51.226;6.904;2022-09-09T00:01:40;100175.78;;;16.65;100.00
4836;BME280;2432;51.226;6.904;2022-09-09T00:04:27;100170.56;;;16.64;100.00
4836;BME280;2432;51.226;6.904;2022-09-09T00:07:03;100161.88;;;16.62;100.00
4836;BME280;2432;51.226;6.904;2022-09-09T00:09:47;100156.81;;;16.57;100.00
4836;BME280;2432;51.226;6.904;2022-09-09T00:14:58;100167.97;;;16.47;100.00
4836;BME280;2432;51.226;6.904;2022-09-09T00:17:38;100159.09;;;16.48;100.00
4836;BME280;2432;51.226;6.904;2022-09-09T00:20:14;100155.69;;;16.46;100.00
4836;BME280;2432;51.226;6.904;2022-09-09T00:22:49;100153.25;;;16.41;100.00
4836;BME280;2432;51.226;6.904;2022-09-09T00:25:28;100144.66;;;16.37;100.00
4836;BME280;2432;51.226;6.904;2022-09-09T00:27:56;100148.22;;;16.36;100.00
4836;BME280;2432;51.226;6.904;2022-09-09T00:30:23;100137.03;;;16.31;100.00
4836;BME280;2432;51.226;6.904;2022-09-09T00:32:53;100145.13;;;16.28;100.00
4836;BME280;2432;51.226;6.904;2022-09-09T00:35:25;100152.38;;;16.25;100.00
4836;BME280;2432;51.226;6.904;2022-09-09T00:38:00;100147.16;;;16.23;100.00
4836;BME280;2432;51.226;6.904;2022-09-09T00:40:38;100156.56;;;16.29;100.00
4836;BME280;2432;51.226;6.904;2022-09-09T00:43:14;100155.06;;;16.23;100.00
4836;BME280;2432;51.226;6.904;2022-09-09T00:48:50;100156.09;;;16.21;100.00
4836;BME280;2432;51.226;6.904;2022-09-09T01:03:00;100146.75;;;16.31;100.00
4836;BME280;2432;51.226;6.904;2022-09-09T01:08:08;100152.03;;;16.31;100.00
4836;BME280;2432;51.226;6.904;2022-09-09T01:10:43;100150.25;;;16.31;100.00
4836;BME280;2432;51.226;6.904;2022-09-09T01:13:28;100150.41;;;16.28;100.00
4836;BME280;2432;51.226;6.904;2022-09-09T01:16:04;100136.53;;;16.25;100.00
4836;BME280;2432;51.226;6.904;2022-09-09T01:18:37;100146.19;;;16.24;100.00
4836;BME280;2432;51.226;6.904;2022-09-09T01:21:32;100143.97;;;16.17;100.00
4836;BME280;2432;51.226;6.904;2022-09-09T01:24:13;100144.13;;;16.14;100.00
4836;BME280;2432;51.226;6.904;2022-09-09T01:26:43;100149.41;;;16.14;100.00
4836;BME280;2432;51.226;6.904;2022-09-09T01:29:13;100147.53;;;16.16;100.00
4836;BME280;2432;51.226;6.904;2022-09-09T01:31:43;100155.22;;;16.20;100.00
4836;BME280;2432;51.226;6.904;2022-09-09T01:34:17;100151.66;;;16.21;100.00
4836;BME280;2432;51.226;6.904;2022-09-09T01:36:49;100146.38;;;16.21;100.00
4836;BME280;2432;51.226;6.904;2022-09-09T01:39:18;100138.44;;;16.21;100.00
4836;BME280;2432;51.226;6.904;2022-09-09T01:41:45;100140.25;;;16.21;100.00
4836;BME280;2432;51.226;6.904;2022-09-09T01:44:11;100143.97;;;16.17;100.00
4836;BME280;2432;51.226;6.904;2022-09-09T01:46:38;100142.59;;;16.09;100.00
4836;BME280;2432;51.226;6.904;2022-09-09T01:49:06;100140.31;;;16.02;100.00
4836;BME280;2432;51.226;6.904;2022-09-09T01:51:35;100132.41;;;16.02;100.00
4836;BME280;2432;51.226;6.904;2022-09-09T01:54:03;100138.44;;;16.04;100.00
4836;BME280;2432;51.226;6.904;2022-09-09T02:02:17;100146.06;;;16.10;100.00
4836;BME280;2432;51.226;6.904;2022-09-09T02:04:48;100134.97;;;16.03;100.00
4836;BME280;2432;51.226;6.904;2022-09-09T02:10:00;100149.25;;;15.99;100.00
4836;BME280;2432;51.226;6.904;2022-09-09T02:12:29;100141.00;;;16.05;100.00
4836;BME280;2432;51.226;6.904;2022-09-09T02:15:03;100142.59;;;16.09;100.00
4836;BME280;2432;51.226;6.904;2022-09-09T02:17:34;100139.78;;;16.13;100.00
4836;BME280;2432;51.226;6.904;2022-09-09T02:20:07;100138.63;;;16.18;100.00
4836;BME280;2432;51.226;6.904;2022-09-09T02:22:36;100140.16;;;16.22;100.00
4836;BME280;2432;51.226;6.904;2022-09-09T02:25:07;100147.78;;;16.28;100.00
4836;BME280;2432;51.226;6.904;2022-09-09T02:27:34;100146.75;;;16.31;100.00
4836;BME280;2432;51.226;6.904;2022-09-09T02:30:02;100148.47;;;16.32;100.00
4836;BME280;2432;51.226;6.904;2022-09-09T02:32:32;100144.88;;;16.33;100.00
4836;BME280;2432;51.226;6.904;2022-09-09T02:35:04;100151.81;;;16.35;100.00
4836;BME280;2432;51.226;6.904;2022-09-09T02:37:36;100146.53;;;16.35;100.00
4836;BME280;2432;51.226;6.904;2022-09-09T02:40:07;100139.44;;;16.36;100.00
4836;BME280;2432;51.226;6.904;2022-09-09T02:42:42;100137.75;;;16.35;100.00
4836;BME280;2432;51.226;6.904;2022-09-09T02:45:12;100137.66;;;16.36;100.00
4836;BME280;2432;51.226;6.904;2022-09-09T02:48:46;100135.25;;;16.32;100.00
4836;BME280;2432;51.226;6.904;2022-09-09T02:51:04;100130.75;;;16.34;100.00
4836;BME280;2432;51.226;6.904;2022-09-09T02:56:25;100136.09;;;16.32;100.00
4836;BME280;2432;51.226;6.904;2022-09-09T02:58:54;100136.19;;;16.31;100.00
4836;BME280;2432;51.226;6.904;2022-09-09T03:01:21;100129.09;;;16.31;100.00
4836;BME280;2432;51.226;6.904;2022-09-09T03:03:48;100129.03;;;16.33;100.00
4836;BME280;2432;51.226;6.904;2022-09-09T03:06:14;100136.09;;;16.32;100.00
4836;BME280;2432;51.226;6.904;2022-09-09T03:08:41;100138.75;;;16.32;100.00
4836;BME280;2432;51.226;6.904;2022-09-09T03:11:15;100130.81;;;16.32;100.00
4836;BME280;2432;51.226;6.904;2022-09-09T03:13:41;100129.03;;;16.33;100.00
4836;BME280;2432;51.226;6.904;2022-09-09T03:16:08;100125.88;;;16.26;100.00
4836;BME280;2432;51.226;6.904;2022-09-09T03:18:34;100118.78;;;16.27;100.00
4836;BME280;2432;51.226;6.904;2022-09-09T03:21:01;100117.94;;;16.26;100.00
4836;BME280;2432;51.226;6.904;2022-09-09T03:23:28;100123.31;;;16.25;100.00
4836;BME280;2432;51.226;6.904;2022-09-09T03:25:54;100116.25;;;16.25;100.00
4836;BME280;2432;51.226;6.904;2022-09-09T03:28:23;100117.22;;;16.23;100.00
4836;BME280;2432;51.226;6.904;2022-09-09T03:30:51;100117.31;;;16.21;100.00
4836;BME280;2432;51.226;6.904;2022-09-09T03:33:18;100116.38;;;16.22;100.00
4836;BME280;2432;51.226;6.904;2022-09-09T03:35:46;100115.44;;;16.23;100.00
4836;BME280;2432;51.226;6.904;2022-09-09T03:38:14;100118.16;;;16.22;100.00
4836;BME280;2432;51.226;6.904;2022-09-09T03:40:49;100123.53;;;16.20;100.00
4836;BME280;2432;51.226;6.904;2022-09-09T03:43:15;100113.91;;;16.19;100.00
4836;BME280;2432;51.226;6.904;2022-09-09T03:45:46;100121.75;;;16.21;100.00
4836;BME280;2432;51.226;6.904;2022-09-09T03:48:14;100124.47;;;16.19;100.00
4836;BME280;2432;51.226;6.904;2022-09-09T03:50:49;100115.53;;;16.22;100.00
4836;BME280;2432;51.226;6.904;2022-09-09T03:53:18;100115.53;;;16.22;100.00
4836;BME280;2432;51.226;6.904;2022-09-09T03:55:46;100116.28;;;16.24;100.00
4836;BME280;2432;51.226;6.904;2022-09-09T03:58:14;100121.66;;;16.22;100.00
4836;BME280;2432;51.226;6.904;2022-09-09T04:00:41;100112.88;;;16.22;100.00
4836;BME280;2432;51.226;6.904;2022-09-09T04:03:11;100113.81;;;16.21;100.00
4836;BME280;2432;51.226;6.904;2022-09-09T04:05:41;100110.50;;;16.17;100.00
4836;BME280;2432;51.226;6.904;2022-09-09T04:08:08;100114.97;;;16.15;100.00
4836;BME280;2432;51.226;6.904;2022-09-09T04:10:35;100122.91;;;16.15;100.00
4836;BME280;2432;51.226;6.904;2022-09-09T04:13:05;100121.28;;;16.13;100.00
4836;BME280;2432;51.226;6.904;2022-09-09T04:15:31;100121.19;;;16.14;100.00
4836;BME280;2432;51.226;6.904;2022-09-09T04:17:58;100122.13;;;16.13;100.00
4836;BME280;2432;51.226;6.904;2022-09-09T04:20:24;100119.56;;;16.11;100.00
4836;BME280;2432;51.226;6.904;2022-09-09T04:22:51;100117.03;;;16.10;100.00
4836;BME280;2432;51.226;6.904;2022-09-09T04:25:17;100122.06;;;16.15;100.00
4836;BME280;2432;51.226;6.904;2022-09-09T04:27:44;100119.56;;;16.11;100.00
4836;BME280;2432;51.226;6.904;2022-09-09T04:30:10;100123.84;;;16.14;100.00
4836;BME280;2432;51.226;6.904;2022-09-09T04:32:38;100122.06;;;16.15;100.00
4836;BME280;2432;51.226;6.904;2022-09-09T04:35:04;100112.28;;;16.17;100.00
4836;BME280;2432;51.226;6.904;2022-09-09T04:37:31;100114.13;;;16.15;100.00
4836;BME280;2432;51.226;6.904;2022-09-09T04:39:57;100115.16;;;16.12;100.00
4836;BME280;2432;51.226;6.904;2022-09-09T04:42:25;100114.47;;;16.08;100.00
4836;BME280;2432;51.226;6.904;2022-09-09T04:44:52;100117.97;;;16.09;100.00
4836;BME280;2432;51.226;6.904;2022-09-09T04:47:18;100124.09;;;16.09;100.00
4836;BME280;2432;51.226;6.904;2022-09-09T04:49:45;100126.88;;;16.06;100.00
4836;BME280;2432;51.226;6.904;2022-09-09T04:52:11;100127.66;;;16.08;100.00
4836;BME280;2432;51.226;6.904;2022-09-09T04:54:38;100125.03;;;16.08;100.00
4836;BME280;2432;51.226;6.904;2022-09-09T04:57:05;100124.84;;;16.11;100.00
4836;BME280;2432;51.226;6.904;2022-09-09T04:59:31;100124.84;;;16.11;100.00
4836;BME280;2432;51.226;6.904;2022-09-09T05:01:57;100122.22;;;16.11;100.00
4836;BME280;2432;51.226;6.904;2022-09-09T05:04:24;100132.63;;;16.15;100.00
4836;BME280;2432;51.226;6.904;2022-09-09T05:06:50;100124.69;;;16.15;100.00
4836;BME280;2432;51.226;6.904;2022-09-09T05:09:17;100122.06;;;16.15;100.00
4836;BME280;2432;51.226;6.904;2022-09-09T05:11:43;100128.13;;;16.17;100.00
4836;BME280;2432;51.226;6.904;2022-09-09T05:14:10;100129.97;;;16.15;100.00
4836;BME280;2432;51.226;6.904;2022-09-09T05:16:38;100125.50;;;16.17;100.00
4836;BME280;2432;51.226;6.904;2022-09-09T05:19:05;100123.69;;;16.17;100.00
4836;BME280;2432;51.226;6.904;2022-09-09T05:21:34;100125.41;;;16.18;100.00
4836;BME280;2432;51.226;6.904;2022-09-09T05:24:00;100119.28;;;16.18;100.00
4836;BME280;2432;51.226;6.904;2022-09-09T05:26:27;100114.97;;;16.15;100.00
4836;BME280;2432;51.226;6.904;2022-09-09T05:28:55;100114.28;;;16.11;100.00
4836;BME280;2432;51.226;6.904;2022-09-09T05:31:22;100112.41;;;16.14;100.00
4836;BME280;2432;51.226;6.904;2022-09-09T05:33:48;100107.13;;;16.14;100.00
4836;BME280;2432;51.226;6.904;2022-09-09T05:36:17;100108.72;;;16.18;100.00
4836;BME280;2432;51.226;6.904;2022-09-09T05:38:44;100114.84;;;16.18;100.00
4836;BME280;2432;51.226;6.904;2022-09-09T05:41:12;100103.41;;;16.18;100.00
4836;BME280;2432;51.226;6.904;2022-09-09T05:43:41;100110.41;;;16.19;100.00
4836;BME280;2432;51.226;6.904;2022-09-09T05:46:13;100107.84;;;16.17;100.00
4836;BME280;2432;51.226;6.904;2022-09-09T05:48:41;100108.72;;;16.18;100.00
4836;BME280;2432;51.226;6.904;2022-09-09T05:51:10;100113.13;;;16.17;100.00
4836;BME280;2432;51.226;6.904;2022-09-09T05:53:38;100115.69;;;16.19;100.00
4836;BME280;2432;51.226;6.904;2022-09-09T05:56:07;100112.97;;;16.20;100.00
4836;BME280;2432;51.226;6.904;2022-09-09T05:58:37;100126.09;;;16.22;100.00
4836;BME280;2432;51.226;6.904;2022-09-09T06:01:09;100125.03;;;16.26;100.00
4836;BME280;2432;51.226;6.904;2022-09-09T06:03:38;100124.84;;;16.29;100.00
4836;BME280;2432;51.226;6.904;2022-09-09T06:06:07;100125.63;;;16.31;100.00
4836;BME280;2432;51.226;6.904;2022-09-09T06:08:36;100125.47;;;16.34;100.00
4836;BME280;2432;51.226;6.904;2022-09-09T06:11:08;100124.63;;;16.33;100.00
4836;BME280;2432;51.226;6.904;2022-09-09T06:13:35;100126.16;;;16.37;100.00
4836;BME280;2432;51.226;6.904;2022-09-09T06:16:05;100120.03;;;16.37;100.00
4836;BME280;2432;51.226;6.904;2022-09-09T06:18:34;100121.72;;;16.38;100.00
4836;BME280;2432;51.226;6.904;2022-09-09T06:21:06;100128.56;;;16.42;100.00
4836;BME280;2432;51.226;6.904;2022-09-09T06:23:33;100125.00;;;16.43;100.00
4836;BME280;2432;51.226;6.904;2022-09-09T06:26:05;100125.75;;;16.45;100.00
4836;BME280;2432;51.226;6.904;2022-09-09T06:28:33;100123.28;;;16.42;100.00
4836;BME280;2432;51.226;6.904;2022-09-09T06:31:01;100130.19;;;16.45;100.00
4836;BME280;2432;51.226;6.904;2022-09-09T06:33:33;100127.47;;;16.46;100.00
4836;BME280;2432;51.226;6.904;2022-09-09T06:36:02;100133.50;;;16.48;100.00
4836;BME280;2432;51.226;6.904;2022-09-09T06:38:30;100142.22;;;16.50;100.00
4836;BME280;2432;51.226;6.904;2022-09-09T06:40:58;100144.84;;;16.50;100.00
4836;BME280;2432;51.226;6.904;2022-09-09T06:43:26;100133.38;;;16.51;100.00
4836;BME280;2432;51.226;6.904;2022-09-09T06:46:05;100136.16;;;16.48;100.00
4836;BME280;2432;51.226;6.904;2022-09-09T06:48:32;100137.88;;;16.49;100.00
4836;BME280;2432;51.226;6.904;2022-09-09T06:51:03;100132.53;;;16.51;100.00
4836;BME280;2432;51.226;6.904;2022-09-09T06:53:30;100137.63;;;16.54;100.00
4836;BME280;2432;51.226;6.904;2022-09-09T06:56:46;100140.81;;;16.60;100.00
4836;BME280;2432;51.226;6.904;2022-09-09T06:58:50;100140.66;;;16.63;100.00
4836;BME280;2432;51.226;6.904;2022-09-09T07:01:20;100140.56;;;16.65;100.00
4836;BME280;2432;51.226;6.904;2022-09-09T07:03:52;100146.59;;;16.67;100.00
4836;BME280;2432;51.226;6.904;2022-09-09T07:06:24;100145.75;;;16.66;100.00
4836;BME280;2432;51.226;6.904;2022-09-09T07:08:52;100142.25;;;16.66;100.00
4836;BME280;2432;51.226;6.904;2022-09-09T07:11:24;100149.16;;;16.70;100.00
4836;BME280;2432;51.226;6.904;2022-09-09T07:13:52;100147.34;;;16.71;100.00
4836;BME280;2432;51.226;6.904;2022-09-09T07:16:20;100142.81;;;16.73;100.00
4836;BME280;2432;51.226;6.904;2022-09-09T07:18:50;100154.34;;;16.72;100.00
4836;BME280;2432;51.226;6.904;2022-09-09T07:21:17;100152.38;;;16.75;100.00
4836;BME280;2432;51.226;6.904;2022-09-09T07:23:43;100144.38;;;16.77;100.00
4836;BME280;2432;51.226;6.904;2022-09-09T07:26:15;100148.66;;;16.79;100.00
4836;BME280;2432;51.226;6.904;2022-09-09T07:28:42;100151.38;;;16.78;100.00
4836;BME280;2432;51.226;6.904;2022-09-09T07:33:44;100157.25;;;16.83;100.00
4836;BME280;2432;51.226;6.904;2022-09-09T07:36:19;100155.31;;;16.86;100.00
4836;BME280;2432;51.226;6.904;2022-09-09T07:38:57;100164.03;;;16.88;100.00
4836;BME280;2432;51.226;6.904;2022-09-09T07:41:26;100161.13;;;16.93;100.00
4836;BME280;2432;51.226;6.904;2022-09-09T07:43:53;100167.09;;;16.97;100.00
4836;BME280;2432;51.226;6.904;2022-09-09T07:46:23;100165.16;;;17.00;100.00
4836;BME280;2432;51.226;6.904;2022-09-09T07:48:52;100165.75;;;17.05;100.00
4836;BME280;2432;51.226;6.904;2022-09-09T07:51:30;100171.06;;;17.05;100.00
4836;BME280;2432;51.226;6.904;2022-09-09T07:53:59;100181.47;;;17.08;100.00
4836;BME280;2432;51.226;6.904;2022-09-09T07:56:27;100178.72;;;17.10;100.00
4836;BME280;2432;51.226;6.904;2022-09-09T07:58:55;100176.16;;;17.08;100.00
4836;BME280;2432;51.226;6.904;2022-09-09T08:04:02;100174.13;;;17.13;100.00
4836;BME280;2432;51.226;6.904;2022-09-09T08:06:32;100173.09;;;17.16;100.00
4836;BME280;2432;51.226;6.904;2022-09-09T08:08:59;100172.25;;;17.15;100.00
4836;BME280;2432;51.226;6.904;2022-09-09T08:11:27;100173.97;;;17.16;100.00
4836;BME280;2432;51.226;6.904;2022-09-09T08:13:55;100175.66;;;17.17;100.00
4836;BME280;2432;51.226;6.904;2022-09-09T08:16:42;100174.13;;;17.13;100.00
4836;BME280;2432;51.226;6.904;2022-09-09T08:19:09;100180.19;;;17.15;100.00
4836;BME280;2432;51.226;6.904;2022-09-09T08:21:37;100172.34;;;17.14;100.00
4836;BME280;2432;51.226;6.904;2022-09-09T08:24:06;100178.47;;;17.14;100.00
4836;BME280;2432;51.226;6.904;2022-09-09T08:26:35;100182.75;;;17.17;100.00
4836;BME280;2432;51.226;6.904;2022-09-09T08:29:03;100182.66;;;17.18;100.00
4836;BME280;2432;51.226;6.904;2022-09-09T08:31:33;100182.56;;;17.20;100.00
4836;BME280;2432;51.226;6.904;2022-09-09T08:34:00;100176.38;;;17.21;100.00
4836;BME280;2432;51.226;6.904;2022-09-09T08:36:31;100182.25;;;17.26;100.00
4836;BME280;2432;51.226;6.904;2022-09-09T08:39:00;100183.84;;;17.29;100.00
4836;BME280;2432;51.226;6.904;2022-09-09T08:58:05;100184.72;;;17.45;100.00
4836;BME280;2432;51.226;6.904;2022-09-09T09:01:02;100172.44;;;17.44;100.00
4836;BME280;2432;51.226;6.904;2022-09-09T09:09:05;100183.63;;;17.49;100.00
4836;BME280;2432;51.226;6.904;2022-09-09T09:11:55;100178.47;;;17.46;100.00
4836;BME280;2432;51.226;6.904;2022-09-09T09:14:29;100180.38;;;17.44;100.00
4836;BME280;2432;51.226;6.904;2022-09-09T09:17:02;100185.00;;;17.40;100.00
4836;BME280;2432;51.226;6.904;2022-09-09T09:19:33;100190.09;;;17.43;100.00
4836;BME280;2432;51.226;6.904;2022-09-09T09:22:19;100184.72;;;17.45;100.00
4836;BME280;2432;51.226;6.904;2022-09-09T09:24:54;100179.94;;;17.51;100.00
4836;BME280;2432;51.226;6.904;2022-09-09T09:27:33;100182.59;;;17.51;100.00
4836;BME280;2432;51.226;6.904;2022-09-09T09:30:12;100181.41;;;17.57;100.00
4836;BME280;2432;51.226;6.904;2022-09-09T09:33:17;100186.84;;;17.54;100.00
4836;BME280;2432;51.226;6.904;2022-09-09T09:35:44;100187.03;;;17.51;100.00
4836;BME280;2432;51.226;6.904;2022-09-09T09:38:37;100190.63;;;17.50;100.00
4836;BME280;2432;51.226;6.904;2022-09-09T09:41:38;100185.16;;;17.53;100.00
4836;BME280;2432;51.226;6.904;2022-09-09T09:44:28;100194.47;;;17.60;100.00
4836;BME280;2432;51.226;6.904;2022-09-09T09:47:12;100190.53;;;17.67;100.00
4836;BME280;2432;51.226;6.904;2022-09-09T09:49:39;100184.75;;;17.76;100.00
4836;BME280;2432;51.226;6.904;2022-09-09T09:52:21;100189.50;;;17.86;97.67
4836;BME280;2432;51.226;6.904;2022-09-09T09:54:49;100196.16;;;17.93;95.65
4836;BME280;2432;51.226;6.904;2022-09-09T09:57:16;100190.59;;;17.97;94.15
4836;BME280;2432;51.226;6.904;2022-09-09T09:59:45;100192.22;;;18.00;94.04
4836;BME280;2432;51.226;6.904;2022-09-09T10:02:23;100186.00;;;18.15;93.80
4836;BME280;2432;51.226;6.904;2022-09-09T10:05:16;100190.72;;;18.26;94.09
4836;BME280;2432;51.226;6.904;2022-09-09T10:07:45;100184.75;;;18.36;93.73
4836;BME280;2432;51.226;6.904;2022-09-09T10:10:36;100187.22;;;18.40;94.09
4836;BME280;2432;51.226;6.904;2022-09-09T10:19:00;100181.81;;;18.41;98.81
4836;BME280;2432;51.226;6.904;2022-09-09T10:21:48;100184.66;;;18.38;95.35
4836;BME280;2432;51.226;6.904;2022-09-09T10:24:35;100180.97;;;18.41;95.66
4836;BME280;2432;51.226;6.904;2022-09-09T10:27:18;100177.38;;;18.42;96.06
4836;BME280;2432;51.226;6.904;2022-09-09T10:30:04;100184.22;;;18.46;93.27
4836;BME280;2432;51.226;6.904;2022-09-09T10:32:48;100181.75;;;18.57;92.68
4836;BME280;2432;51.226;6.904;2022-09-09T10:38:27;100171.06;;;18.58;94.83
4836;BME280;2432;51.226;6.904;2022-09-09T10:57:39;100161.09;;;18.48;94.41
4836;BME280;2432;51.226;6.904;2022-09-09T11:00:40;100153.16;;;18.48;95.71
4836;BME280;2432;51.226;6.904;2022-09-09T11:03:22;100153.91;;;18.50;94.29
4836;BME280;2432;51.226;6.904;2022-09-09T11:06:05;100158.94;;;18.54;90.54
4836;BME280;2432;51.226;6.904;2022-09-09T11:08:36;100158.63;;;18.59;91.87
4836;BME280;2432;51.226;6.904;2022-09-09T11:11:25;100156.78;;;18.61;92.73
4836;BME280;2432;51.226;6.904;2022-09-09T11:14:05;100152.13;;;18.64;92.30
4836;BME280;2432;51.226;6.904;2022-09-09T11:16:42;100143.25;;;18.66;95.01
4836;BME280;2432;51.226;6.904;2022-09-09T11:21:53;100149.41;;;18.66;93.19
4836;BME280;2432;51.226;6.904;2022-09-09T11:24:50;100152.41;;;18.60;91.82
4836;BME280;2432;51.226;6.904;2022-09-09T11:27:27;100159.03;;;18.53;93.46
4836;BME280;2432;51.226;6.904;2022-09-09T11:33:07;100171.53;;;18.51;99.72
4836;BME280;2432;51.226;6.904;2022-09-09T11:35:41;100180.25;;;18.53;100.00
4836;BME280;2432;51.226;6.904;2022-09-09T11:38:24;100172.47;;;18.50;100.00
4836;BME280;2432;51.226;6.904;2022-09-09T11:41:05;100169.34;;;18.43;100.00
4836;BME280;2432;51.226;6.904;2022-09-09T11:43:48;100168.16;;;18.33;100.00
4836;BME280;2432;51.226;6.904;2022-09-09T11:46:20;100177.75;;;18.35;100.00
4836;BME280;2432;51.226;6.904;2022-09-09T11:49:03;100166.97;;;18.39;100.00
4836;BME280;2432;51.226;6.904;2022-09-09T11:51:31;100164.50;;;18.50;100.00
4836;BME280;2432;51.226;6.904;2022-09-09T11:54:26;100160.44;;;18.58;100.00
4836;BME280;2432;51.226;6.904;2022-09-09T11:56:55;100155.06;;;18.60;100.00
4836;BME280;2432;51.226;6.904;2022-09-09T11:59:32;100153.44;;;18.57;100.00
4836;BME280;2432;51.226;6.904;2022-09-09T12:02:13;100159.03;;;18.53;100.00
4836;BME280;2432;51.226;6.904;2022-09-09T12:04:49;100161.19;;;18.46;100.00
4836;BME280;2432;51.226;6.904;2022-09-09T12:07:32;100158.91;;;18.40;98.95
4836;BME280;2432;51.226;6.904;2022-09-09T12:12:50;100174.34;;;18.33;99.85
4836;BME280;2432;51.226;6.904;2022-09-09T12:17:49;100174.97;;;18.23;100.00
4836;BME280;2432;51.226;6.904;2022-09-09T12:20:23;100181.66;;;18.14;100.00
4836;BME280;2432;51.226;6.904;2022-09-09T12:22:56;100180.72;;;18.15;100.00
4836;BME280;2432;51.226;6.904;2022-09-09T12:30:49;100174.25;;;18.49;100.00
4836;BME280;2432;51.226;6.904;2022-09-09T12:33:19;100165.69;;;18.60;100.00
4836;BME280;2432;51.226;6.904;2022-09-09T12:35:52;100167.97;;;18.66;100.00
4836;BME280;2432;51.226;6.904;2022-09-09T12:38:32;100164.53;;;18.64;100.00
4836;BME280;2432;51.226;6.904;2022-09-09T12:41:00;100163.63;;;18.65;100.00
4836;BME280;2432;51.226;6.904;2022-09-09T12:43:28;100160.88;;;18.67;100.00
4836;BME280;2432;51.226;6.904;2022-09-09T12:45:58;100156.88;;;18.74;100.00
4836;BME280;2432;51.226;6.904;2022-09-09T12:48:39;100156.41;;;18.81;100.00
4836;BME280;2432;51.226;6.904;2022-09-09T12:51:30;100148.09;;;18.87;100.00
4836;BME280;2432;51.226;6.904;2022-09-09T12:53:59;100139.94;;;18.90;100.00
4836;BME280;2432;51.226;6.904;2022-09-09T12:56:27;100140.88;;;18.89;100.00
4836;BME280;2432;51.226;6.904;2022-09-09T12:58:56;100141.25;;;18.83;100.00
4836;BME280;2432;51.226;6.904;2022-09-09T13:01:29;100135.50;;;18.77;100.00
4836;BME280;2432;51.226;6.904;2022-09-09T13:03:57;100140.31;;;18.70;100.00
4836;BME280;2432;51.226;6.904;2022-09-09T13:06:25;100165.59;;;18.61;100.00
4836;BME280;2432;51.226;6.904;2022-09-09T13:08:58;100190.72;;;18.40;100.00
4836;BME280;2432;51.226;6.904;2022-09-09T13:13:54;100165.00;;;18.42;100.00
4836;BME280;2432;51.226;6.904;2022-09-09T13:16:26;100161.75;;;18.96;100.00
4836;BME280;2432;51.226;6.904;2022-09-09T13:19:00;100154.66;;;19.37;100.00
4836;BME280;2432;51.226;6.904;2022-09-09T13:21:38;100161.41;;;19.29;100.00
4836;BME280;2432;51.226;6.904;2022-09-09T13:24:21;100160.59;;;19.14;100.00
4836;BME280;2432;51.226;6.904;2022-09-09T13:27:01;100160.47;;;19.01;100.00
4836;BME280;2432;51.226;6.904;2022-09-09T13:29:29;100155.66;;;18.93;100.00
4836;BME280;2432;51.226;6.904;2022-09-09T13:32:26;100154.34;;;18.86;100.00
4836;BME280;2432;51.226;6.904;2022-09-09T13:34:59;100149.22;;;18.83;100.00
4836;BME280;2432;51.226;6.904;2022-09-09T13:37:35;100143.06;;;18.83;100.00
4836;BME280;2432;51.226;6.904;2022-09-09T13:40:03;100141.72;;;18.90;100.00
4836;BME280;2432;51.226;6.904;2022-09-09T13:42:34;100141.16;;;18.85;100.00
4836;BME280;2432;51.226;6.904;2022-09-09T13:45:04;100143.25;;;18.80;100.00
4836;BME280;2432;51.226;6.904;2022-09-09T13:47:35;100135.41;;;18.78;100.00
4836;BME280;2432;51.226;6.904;2022-09-09T13:50:29;100140.31;;;18.84;100.00
4836;BME280;2432;51.226;6.904;2022-09-09T13:52:57;100133.50;;;18.95;100.00
4836;BME280;2432;51.226;6.904;2022-09-09T13:55:28;100131.22;;;19.03;100.00
4836;BME280;2432;51.226;6.904;2022-09-09T13:58:01;100125.91;;;19.03;100.00
4836;BME280;2432;51.226;6.904;2022-09-09T14:00:33;100122.03;;;18.94;100.00
4836;BME280;2432;51.226;6.904;2022-09-09T14:03:00;100121.56;;;18.87;100.00
4836;BME280;2432;51.226;6.904;2022-09-09T14:05:30;100116.53;;;18.83;100.00
4836;BME280;2432;51.226;6.904;2022-09-09T14:07:57;100108.66;;;18.81;100.00
4836;BME280;2432;51.226;6.904;2022-09-09T14:10:26;100123.84;;;18.79;100.00
4836;BME280;2432;51.226;6.904;2022-09-09T14:12:53;100124.41;;;18.70;100.00
4836;BME280;2432;51.226;6.904;2022-09-09T14:15:19;100125.06;;;18.74;100.00
4836;BME280;2432;51.226;6.904;2022-09-09T14:17:46;100126.66;;;18.62;100.00
4836;BME280;2432;51.226;6.904;2022-09-09T14:20:12;100133.66;;;18.63;100.00
4836;BME280;2432;51.226;6.904;2022-09-09T14:22:41;100138.38;;;18.58;100.00
4836;BME280;2432;51.226;6.904;2022-09-09T14:25:08;100126.25;;;18.54;100.00
4836;BME280;2432;51.226;6.904;2022-09-09T14:27:34;100129.13;;;18.51;100.00
4836;BME280;2432;51.226;6.904;2022-09-09T14:30:01;100121.06;;;18.52;100.00
4836;BME280;2432;51.226;6.904;2022-09-09T14:32:27;100126.16;;;18.55;100.00
4836;BME280;2432;51.226;6.904;2022-09-09T14:34:55;100118.41;;;18.52;100.00
4836;BME280;2432;51.226;6.904;2022-09-09T14:37:21;100116.97;;;18.47;100.00
4836;BME280;2432;51.226;6.904;2022-09-09T14:39:48;100118.88;;;18.45;100.00
4836;BME280;2432;51.226;6.904;2022-09-09T14:42:17;100119.25;;;18.39;100.00
4836;BME280;2432;51.226;6.904;2022-09-09T14:44:43;100116.69;;;18.37;100.00
4836;BME280;2432;51.226;6.904;2022-09-09T14:47:10;100117.25;;;18.28;99.98
4836;BME280;2432;51.226;6.904;2022-09-09T14:49:37;100117.19;;;18.14;91.93
4836;BME280;2432;51.226;6.904;2022-09-09T14:52:06;100140.63;;;17.91;92.89
4836;BME280;2432;51.226;6.904;2022-09-09T14:54:35;100165.16;;;17.63;95.28
4836;BME280;2432;51.226;6.904;2022-09-09T14:57:01;100179.94;;;17.04;100.00
4836;BME280;2432;51.226;6.904;2022-09-09T14:59:28;100191.03;;;16.60;100.00
4836;BME280;2432;51.226;6.904;2022-09-09T15:01:54;100182.50;;;16.21;100.00
4836;BME280;2432;51.226;6.904;2022-09-09T15:04:21;100186.31;;;16.15;100.00
4836;BME280;2432;51.226;6.904;2022-09-09T15:06:48;100181.88;;;16.16;100.00
4836;BME280;2432;51.226;6.904;2022-09-09T15:09:16;100171.72;;;16.43;100.00
4836;BME280;2432;51.226;6.904;2022-09-09T15:11:42;100181.25;;;16.62;100.00